createdAt,value
2022-11-10T00:00:50.296Z,73440.75
2022-11-10T00:01:43.576Z,73440.75
2022-11-10T00:02:34.131Z,73448.75
2022-11-10T00:03:28.485Z,73444.75
2022-11-10T00:04:19.109Z,73440.75
2022-11-10T00:05:12.905Z,73440.75
2022-11-10T00:06:04.059Z,73444.75
2022-11-10T00:06:57.855Z,73438.75
2022-11-10T00:07:48.752Z,73442.75
2022-11-10T00:08:42.524Z,73442.75
2022-11-10T00:09:33.664Z,73444.75
2022-11-10T00:10:30.003Z,73442.75
2022-11-10T00:11:20.588Z,73438.75
2022-11-10T00:12:14.080Z,73444.75
2022-11-10T00:13:04.727Z,73444.75
2022-11-10T00:14:10.680Z,73440.75
2022-11-10T00:15:16.496Z,73440.75
2022-11-10T00:16:27.163Z,73436.75
2022-11-10T00:17:20.373Z,73446.75
2022-11-10T00:18:11.306Z,73440.75
2022-11-10T00:19:04.762Z,73436.75
2022-11-10T00:19:55.576Z,73436.75
2022-11-10T00:20:49.367Z,73438.75
2022-11-10T00:21:40.342Z,73436.75
2022-11-10T00:22:34.343Z,73440.75
2022-11-10T00:23:25.156Z,73428.78
2022-11-10T00:24:18.693Z,73438.75
2022-11-10T00:25:09.616Z,73428.78
2022-11-10T00:26:06.039Z,73436.75
2022-11-10T00:26:56.966Z,73442.75
2022-11-10T00:27:50.160Z,73438.75
2022-11-10T00:28:41.301Z,73444.75
2022-11-10T00:29:34.710Z,73440.75
2022-11-10T00:30:25.907Z,73444.75
2022-11-10T00:31:19.154Z,73446.75
2022-11-10T00:32:09.751Z,73454.72
2022-11-10T00:33:03.137Z,73450.72
2022-11-10T00:33:53.831Z,73456.72
2022-11-10T00:34:47.717Z,73456.72
2022-11-10T00:35:38.227Z,73464.72
2022-11-10T00:36:31.472Z,73458.72
2022-11-10T00:37:22.152Z,73468.69
2022-11-10T00:38:15.847Z,73468.69
2022-11-10T00:39:06.613Z,73470.69
2022-11-10T00:40:00.162Z,73464.72
2022-11-10T00:40:50.904Z,73472.69
2022-11-10T00:41:47.122Z,73480.69
2022-11-10T00:42:37.979Z,73476.69
2022-11-10T00:43:32.147Z,73476.69
2022-11-10T00:44:23.253Z,73476.69
2022-11-10T00:45:17.001Z,73482.69
2022-11-10T00:46:07.679Z,73484.66
2022-11-10T00:47:01.216Z,73486.66
2022-11-10T00:47:51.839Z,73484.66
2022-11-10T00:48:45.858Z,73486.66
2022-11-10T00:49:36.686Z,73480.69
2022-11-10T00:50:30.241Z,73488.66
2022-11-10T00:51:23.021Z,73494.66
2022-11-10T00:52:16.128Z,73496.66
2022-11-10T00:53:07.068Z,73492.66
2022-11-10T00:54:01.012Z,73494.66
2022-11-10T00:54:51.932Z,73492.66
2022-11-10T00:55:45.542Z,73496.66
2022-11-10T00:56:36.500Z,73498.66
2022-11-10T00:57:32.706Z,73492.66
2022-11-10T00:58:23.413Z,73486.66
2022-11-10T00:59:16.866Z,73494.66
2022-11-10T01:00:09.976Z,73494.66
2022-11-10T01:01:04.920Z,73492.66
2022-11-10T01:01:55.821Z,73500.63
2022-11-10T01:02:49.146Z,73500.63
2022-11-10T01:03:39.997Z,73504.63
2022-11-10T01:04:33.299Z,73504.63
2022-11-10T01:05:24.004Z,73504.63
2022-11-10T01:06:19.280Z,73504.63
2022-11-10T01:07:10.261Z,73514.63
2022-11-10T01:08:04.093Z,73514.63
2022-11-10T01:08:54.989Z,73512.63
2022-11-10T01:09:48.452Z,73512.63
2022-11-10T01:10:39.276Z,73508.63
2022-11-10T01:11:33.150Z,73512.63
2022-11-10T01:12:23.763Z,73516.59
2022-11-10T01:13:19.834Z,73514.63
2022-11-10T01:14:10.986Z,73518.59
2022-11-10T01:15:04.925Z,73508.63
2022-11-10T01:15:55.737Z,73510.63
2022-11-10T01:16:49.145Z,73516.59
2022-11-10T01:17:40.021Z,73514.63
2022-11-10T01:18:33.452Z,73516.59
2022-11-10T01:19:24.190Z,73520.59
2022-11-10T01:20:17.861Z,73522.59
2022-11-10T01:21:09.113Z,73526.59
2022-11-10T01:22:02.928Z,73516.59
2022-11-10T01:22:53.467Z,73516.59
2022-11-10T01:23:46.897Z,73518.59
2022-11-10T01:24:38.041Z,73520.59
2022-11-10T01:25:31.494Z,73528.59
2022-11-10T01:26:22.904Z,73518.59
2022-11-10T01:27:16.940Z,73520.59
2022-11-10T01:28:07.788Z,73524.59
2022-11-10T01:29:04.451Z,73530.59
2022-11-10T01:29:55.561Z,73536.56
2022-11-10T01:30:48.761Z,73532.59
2022-11-10T01:31:39.765Z,73536.56
2022-11-10T01:32:33.509Z,73532.59
2022-11-10T01:33:24.742Z,73528.59
2022-11-10T01:34:18.470Z,73540.56
2022-11-10T01:35:09.984Z,73532.59
2022-11-10T01:36:03.889Z,73536.56
2022-11-10T01:36:54.876Z,73536.56
2022-11-10T01:37:48.100Z,73536.56
2022-11-10T01:38:41.230Z,73540.56
2022-11-10T01:39:34.760Z,73534.56
2022-11-10T01:40:26.160Z,73530.59
2022-11-10T01:41:19.609Z,73538.56
2022-11-10T01:42:10.112Z,73540.56
2022-11-10T01:43:03.697Z,73536.56
2022-11-10T01:43:54.349Z,73542.56
2022-11-10T01:45:36.051Z,73536.56
2022-11-10T01:46:27.639Z,73544.56
2022-11-10T01:47:20.888Z,73552.53
2022-11-10T01:48:15.459Z,73546.56
2022-11-10T01:49:09.277Z,73552.53
2022-11-10T01:49:59.957Z,73552.53
2022-11-10T01:50:53.266Z,73550.56
2022-11-10T01:51:49.245Z,73552.53
2022-11-10T01:52:43.293Z,73552.53
2022-11-10T01:53:38.953Z,73554.53
2022-11-10T01:54:35.105Z,73548.56
2022-11-10T01:55:26.351Z,73560.53
2022-11-10T01:56:20.628Z,73550.56
2022-11-10T01:57:13.428Z,73552.53
2022-11-10T01:58:07.433Z,73558.53
2022-11-10T01:59:01.496Z,73556.53
2022-11-10T01:59:54.761Z,73556.53
2022-11-10T02:00:48.369Z,73556.53
2022-11-10T02:01:42.063Z,73556.53
2022-11-10T02:02:37.525Z,73556.53
2022-11-10T02:03:35.708Z,73556.53
2022-11-10T02:04:27.277Z,73560.53
2022-11-10T02:05:20.878Z,73554.53
2022-11-10T02:06:12.345Z,73556.53
2022-11-10T02:07:06.169Z,73560.53
2022-11-10T02:07:57.305Z,73556.53
2022-11-10T02:08:51.104Z,73560.53
2022-11-10T02:09:42.375Z,73564.53
2022-11-10T02:10:37.433Z,73564.53
2022-11-10T02:11:29.505Z,73558.53
2022-11-10T02:12:37.242Z,73562.53
2022-11-10T02:13:28.471Z,73570.50
2022-11-10T02:14:22.012Z,73562.53
2022-11-10T02:15:15.144Z,73568.50
2022-11-10T02:16:12.509Z,73564.53
2022-11-10T02:17:03.191Z,73570.50
2022-11-10T02:17:56.613Z,73572.50
2022-11-10T02:18:48.207Z,73572.50
2022-11-10T02:19:44.446Z,73572.50
2022-11-10T02:20:35.788Z,73572.50
2022-11-10T02:21:31.852Z,73568.50
2022-11-10T02:22:22.714Z,73572.50
2022-11-10T02:23:18.824Z,73570.50
2022-11-10T02:24:09.964Z,73572.50
2022-11-10T02:25:03.447Z,73578.50
2022-11-10T02:25:54.021Z,73576.50
2022-11-10T02:26:50.394Z,73580.50
2022-11-10T02:27:41.204Z,73582.50
2022-11-10T02:28:37.094Z,73580.50
2022-11-10T02:29:28.280Z,73582.50
2022-11-10T02:30:26.493Z,73588.47
2022-11-10T02:31:18.656Z,73586.47
2022-11-10T02:32:12.309Z,73590.47
2022-11-10T02:33:04.153Z,73592.47
2022-11-10T02:33:57.803Z,73592.47
2022-11-10T02:34:48.408Z,73596.47
2022-11-10T02:35:41.893Z,73600.47
2022-11-10T02:36:35.607Z,73592.47
2022-11-10T02:37:29.063Z,73600.47
2022-11-10T02:38:19.734Z,73600.47
2022-11-10T02:39:13.328Z,73596.47
2022-11-10T02:40:04.955Z,73598.47
2022-11-10T02:40:58.209Z,73598.47
2022-11-10T02:41:49.019Z,73604.44
2022-11-10T02:42:42.380Z,73604.44
2022-11-10T02:43:33.245Z,73608.44
2022-11-10T02:44:27.035Z,73604.44
2022-11-10T02:45:17.896Z,73604.44
2022-11-10T02:46:11.363Z,73602.47
2022-11-10T02:47:02.204Z,73604.44
2022-11-10T02:47:56.036Z,73600.47
2022-11-10T02:48:46.882Z,73596.47
2022-11-10T02:49:40.151Z,73608.44
2022-11-10T02:50:31.148Z,73602.47
2022-11-10T02:51:24.775Z,73600.47
2022-11-10T02:52:18.128Z,73604.44
2022-11-10T02:53:11.932Z,73608.44
2022-11-10T02:54:06.262Z,73608.44
2022-11-10T02:54:57.209Z,73612.44
2022-11-10T02:55:50.590Z,73612.44
2022-11-10T02:56:41.193Z,73608.44
2022-11-10T02:57:34.551Z,73608.44
2022-11-10T02:58:25.605Z,73608.44
2022-11-10T02:59:18.988Z,73608.44
2022-11-10T03:00:11.220Z,73612.44
2022-11-10T03:01:07.472Z,73612.44
2022-11-10T03:01:58.274Z,73616.44
2022-11-10T03:02:51.693Z,73620.41
2022-11-10T03:03:42.596Z,73624.41
2022-11-10T03:04:36.088Z,73614.44
2022-11-10T03:05:27.066Z,73614.44
2022-11-10T03:06:20.488Z,73620.41
2022-11-10T03:07:11.220Z,73616.44
2022-11-10T03:08:07.809Z,73614.44
2022-11-10T03:08:58.581Z,73608.44
2022-11-10T03:09:51.748Z,73620.41
2022-11-10T03:10:42.378Z,73616.44
2022-11-10T03:11:36.066Z,73612.44
2022-11-10T03:12:26.832Z,73618.44
2022-11-10T03:13:20.640Z,73622.41
2022-11-10T03:14:12.057Z,73624.41
2022-11-10T03:15:05.492Z,73618.44
2022-11-10T03:15:56.594Z,73614.44
2022-11-10T03:16:50.201Z,73620.41
2022-11-10T03:17:41.274Z,73628.41
2022-11-10T03:18:34.761Z,73624.41
2022-11-10T03:19:25.605Z,73628.41
2022-11-10T03:20:17.224Z,73624.41
2022-11-10T03:21:10.412Z,73628.41
2022-11-10T03:22:00.951Z,73636.41
2022-11-10T03:22:54.863Z,73630.41
2022-11-10T03:23:48.225Z,73634.41
2022-11-10T03:24:41.452Z,73630.41
2022-11-10T03:25:32.316Z,73640.38
2022-11-10T03:26:25.712Z,73640.38
2022-11-10T03:27:16.136Z,73640.38
2022-11-10T03:28:09.379Z,73644.38
2022-11-10T03:29:00.124Z,73646.38
2022-11-10T03:29:53.375Z,73650.38
2022-11-10T03:30:44.485Z,73652.38
2022-11-10T03:31:37.728Z,73632.41
2022-11-10T03:32:28.572Z,73612.44
2022-11-10T03:33:22.245Z,73594.47
2022-11-10T03:34:13.476Z,73580.50
2022-11-10T03:35:04.932Z,73572.50
2022-11-10T03:35:58.648Z,73568.50
2022-11-10T03:36:49.252Z,73564.53
2022-11-10T03:37:44.884Z,73556.53
2022-11-10T03:38:35.909Z,73548.56
2022-11-10T03:39:31.916Z,73554.53
2022-11-10T03:40:22.916Z,73552.53
2022-11-10T03:41:20.444Z,73546.56
2022-11-10T03:42:11.564Z,73548.56
2022-11-10T03:43:05.057Z,73540.56
2022-11-10T03:43:56.013Z,73540.56
2022-11-10T03:44:49.915Z,73542.56
2022-11-10T03:45:40.516Z,73542.56
2022-11-10T03:46:34.059Z,73540.56
2022-11-10T03:47:25.107Z,73540.56
2022-11-10T03:48:18.619Z,73536.56
2022-11-10T03:49:09.417Z,73538.56
2022-11-10T03:50:02.606Z,73536.56
2022-11-10T03:50:53.381Z,73534.56
2022-11-10T03:51:46.685Z,73540.56
2022-11-10T03:52:39.540Z,73536.56
2022-11-10T03:53:33.140Z,73536.56
2022-11-10T03:54:24.039Z,73536.56
2022-11-10T03:55:21.292Z,73538.56
2022-11-10T03:56:12.786Z,73534.56
2022-11-10T03:57:06.300Z,73536.56
2022-11-10T03:58:01.027Z,73542.56
2022-11-10T03:58:54.281Z,73536.56
2022-11-10T03:59:44.847Z,73536.56
2022-11-10T04:00:38.568Z,73536.56
2022-11-10T04:01:29.200Z,73534.56
2022-11-10T04:02:22.668Z,73540.56
2022-11-10T04:03:13.545Z,73540.56
2022-11-10T04:04:27.130Z,73542.56
2022-11-10T04:05:33.147Z,73540.56
2022-11-10T04:06:39.541Z,73536.56
2022-11-10T04:07:45.231Z,73534.56
2022-11-10T04:08:51.271Z,73536.56
2022-11-10T04:09:44.846Z,73534.56
2022-11-10T04:10:38.696Z,73536.56
2022-11-10T04:11:45.328Z,73542.56
2022-11-10T04:12:51.588Z,73544.56
2022-11-10T04:13:59.966Z,73544.56
2022-11-10T04:15:05.809Z,73544.56
2022-11-10T04:15:59.640Z,73548.56
2022-11-10T04:16:50.505Z,73550.56
2022-11-10T04:17:43.776Z,73548.56
2022-11-10T04:18:34.681Z,73548.56
2022-11-10T04:19:28.444Z,73552.53
2022-11-10T04:20:19.300Z,73552.53
2022-11-10T04:21:12.845Z,73548.56
2022-11-10T04:22:03.472Z,73544.56
2022-11-10T04:23:09.423Z,73554.53
2022-11-10T04:24:02.982Z,73556.53
2022-11-10T04:24:54.369Z,73552.53
2022-11-10T04:26:02.360Z,73556.53
2022-11-10T04:26:55.875Z,73560.53
2022-11-10T04:27:46.570Z,73552.53
2022-11-10T04:28:37.063Z,73558.53
2022-11-10T04:29:30.557Z,73560.53
2022-11-10T04:30:21.460Z,73564.53
2022-11-10T04:31:15.517Z,73568.50
2022-11-10T04:32:06.476Z,73564.53
2022-11-10T04:33:00.041Z,73568.50
2022-11-10T04:33:51.704Z,73568.50
2022-11-10T04:34:45.421Z,73564.53
2022-11-10T04:35:36.081Z,73562.53
2022-11-10T04:36:32.191Z,73560.53
2022-11-10T04:37:22.901Z,73564.53
2022-11-10T04:38:16.344Z,73560.53
2022-11-10T04:39:08.061Z,73560.53
2022-11-10T04:40:01.513Z,73566.53
2022-11-10T04:40:54.867Z,73564.53
2022-11-10T04:41:48.913Z,73572.50
2022-11-10T04:42:40.238Z,73572.50
2022-11-10T04:43:33.893Z,73572.50
2022-11-10T04:44:24.595Z,73580.50
2022-11-10T04:45:18.317Z,73576.50
2022-11-10T04:46:14.369Z,73572.50
2022-11-10T04:47:11.791Z,73576.50
2022-11-10T04:48:03.342Z,73576.50
2022-11-10T04:48:57.949Z,73576.50
2022-11-10T04:49:48.526Z,73582.50
2022-11-10T04:50:41.935Z,73588.47
2022-11-10T04:51:37.432Z,73588.47
2022-11-10T04:52:28.152Z,73596.47
2022-11-10T04:53:21.974Z,73600.47
2022-11-10T04:54:12.909Z,73592.47
2022-11-10T04:55:06.794Z,73600.47
2022-11-10T04:56:00.129Z,73596.47
2022-11-10T04:56:53.499Z,73600.47
2022-11-10T04:57:44.347Z,73604.44
2022-11-10T04:58:37.966Z,73604.44
2022-11-10T04:59:28.705Z,73608.44
2022-11-10T05:00:22.599Z,73608.44
2022-11-10T05:01:15.243Z,73608.44
2022-11-10T05:02:08.762Z,73614.44
2022-11-10T05:03:00.911Z,73608.44
2022-11-10T05:03:54.901Z,73618.44
2022-11-10T05:04:45.480Z,73616.44
2022-11-10T05:05:36.229Z,73616.44
2022-11-10T05:06:29.947Z,73624.41
2022-11-10T05:07:20.816Z,73616.44
2022-11-10T05:08:14.580Z,73624.41
2022-11-10T05:09:05.536Z,73622.41
2022-11-10T05:09:59.216Z,73626.41
2022-11-10T05:10:50.081Z,73628.41
2022-11-10T05:11:45.959Z,73624.41
2022-11-10T05:12:36.534Z,73620.41
2022-11-10T05:13:30.086Z,73624.41
2022-11-10T05:14:20.992Z,73624.41
2022-11-10T05:15:15.055Z,73624.41
2022-11-10T05:16:06.745Z,73628.41
2022-11-10T05:17:00.602Z,73632.41
2022-11-10T05:17:52.192Z,73634.41
2022-11-10T05:18:45.723Z,73630.41
2022-11-10T05:19:36.839Z,73628.41
2022-11-10T05:20:30.840Z,73632.41
2022-11-10T05:21:21.407Z,73630.41
2022-11-10T05:22:14.796Z,73632.41
2022-11-10T05:23:20.751Z,73628.41
2022-11-10T05:24:14.616Z,73628.41
2022-11-10T05:25:05.935Z,73622.41
2022-11-10T05:25:59.584Z,73630.41
2022-11-10T05:26:52.808Z,73624.41
2022-11-10T05:27:46.006Z,73630.41
2022-11-10T05:28:37.496Z,73626.41
2022-11-10T05:29:31.245Z,73632.41
2022-11-10T05:30:22.101Z,73634.41
2022-11-10T05:31:16.003Z,73636.41
2022-11-10T05:32:06.897Z,73632.41
2022-11-10T05:32:58.011Z,73632.41
2022-11-10T05:33:51.349Z,73642.38
2022-11-10T05:34:42.541Z,73644.38
2022-11-10T05:35:33.431Z,73640.38
2022-11-10T05:36:26.762Z,73644.38
2022-11-10T05:37:17.525Z,73644.38
2022-11-10T05:38:11.227Z,73640.38
2022-11-10T05:39:02.210Z,73644.38
2022-11-10T05:39:55.882Z,73646.38
2022-11-10T05:40:46.837Z,73648.38
2022-11-10T05:41:40.004Z,73644.38
2022-11-10T05:42:33.450Z,73644.38
2022-11-10T05:43:27.517Z,73652.38
2022-11-10T05:44:18.402Z,73648.38
2022-11-10T05:45:13.162Z,73652.38
2022-11-10T05:46:04.098Z,73644.38
2022-11-10T05:46:57.500Z,73648.38
2022-11-10T05:47:48.909Z,73660.34
2022-11-10T05:48:42.301Z,73652.38
2022-11-10T05:49:33.295Z,73654.38
2022-11-10T05:50:27.584Z,73660.34
2022-11-10T05:51:18.535Z,73664.34
2022-11-10T05:52:11.905Z,73656.34
2022-11-10T05:53:03.137Z,73658.34
2022-11-10T05:53:56.394Z,73664.34
2022-11-10T05:54:46.985Z,73656.34
2022-11-10T05:55:40.359Z,73660.34
2022-11-10T05:56:31.262Z,73666.34
2022-11-10T05:57:24.900Z,73672.34
2022-11-10T05:58:18.456Z,73668.34
2022-11-10T05:59:11.881Z,73668.34
2022-11-10T06:00:03.181Z,73676.31
2022-11-10T06:01:07.943Z,73680.31
2022-11-10T06:02:00.293Z,73700.28
2022-11-10T06:03:01.066Z,73724.22
2022-11-10T06:03:53.092Z,73740.22
2022-11-10T06:04:46.565Z,73754.19
2022-11-10T06:05:44.629Z,73772.16
2022-11-10T06:06:38.149Z,73788.13
2022-11-10T06:07:29.117Z,73800.09
2022-11-10T06:08:22.656Z,73808.09
2022-11-10T06:09:17.080Z,73820.06
2022-11-10T06:10:11.595Z,73836.03
2022-11-10T06:11:04.597Z,73842.03
2022-11-10T06:11:58.288Z,73846.03
2022-11-10T06:12:49.257Z,73848.03
2022-11-10T06:13:45.369Z,73856.00
2022-11-10T06:14:36.488Z,73864.00
2022-11-10T06:15:30.214Z,73860.00
2022-11-10T06:16:24.199Z,73879.97
2022-11-10T06:17:17.844Z,73875.97
2022-11-10T06:18:08.963Z,73885.94
2022-11-10T06:19:08.312Z,73891.94
2022-11-10T06:19:59.181Z,73901.94
2022-11-10T06:20:58.700Z,73897.94
2022-11-10T06:21:49.608Z,73903.91
2022-11-10T06:22:47.049Z,73911.91
2022-11-10T06:23:38.125Z,73915.91
2022-11-10T06:24:31.657Z,73911.91
2022-11-10T06:25:22.350Z,73923.88
2022-11-10T06:26:21.749Z,73919.91
2022-11-10T06:27:13.282Z,73923.88
2022-11-10T06:28:08.639Z,73919.91
2022-11-10T06:29:02.588Z,73931.88
2022-11-10T06:29:56.134Z,73931.88
2022-11-10T06:30:47.112Z,73931.88
2022-11-10T06:31:43.521Z,73939.84
2022-11-10T06:32:35.336Z,73943.84
2022-11-10T06:33:30.866Z,73939.84
2022-11-10T06:34:21.903Z,73937.88
2022-11-10T06:35:22.619Z,73941.84
2022-11-10T06:36:13.765Z,73947.84
2022-11-10T06:37:07.841Z,73947.84
2022-11-10T06:37:59.847Z,73951.84
2022-11-10T06:38:53.108Z,73949.84
2022-11-10T06:39:44.081Z,73957.81
2022-11-10T06:40:37.619Z,73957.81
2022-11-10T06:41:28.396Z,73959.81
2022-11-10T06:42:22.042Z,73959.81
2022-11-10T06:43:12.853Z,73973.81
2022-11-10T06:44:10.589Z,73975.78
2022-11-10T06:45:01.331Z,73969.81
2022-11-10T06:45:54.637Z,73975.78
2022-11-10T06:46:45.222Z,73975.78
2022-11-10T06:47:38.969Z,73975.78
2022-11-10T06:48:29.669Z,73979.78
2022-11-10T06:49:23.291Z,73983.78
2022-11-10T06:50:14.496Z,73987.78
2022-11-10T06:51:07.880Z,73987.78
2022-11-10T06:51:58.811Z,73987.78
2022-11-10T06:52:57.155Z,73991.78
2022-11-10T06:53:47.922Z,73995.75
2022-11-10T06:54:41.481Z,73995.75
2022-11-10T06:55:32.332Z,73999.75
2022-11-10T06:56:25.861Z,73997.75
2022-11-10T06:57:17.053Z,74003.75
2022-11-10T06:58:11.580Z,74005.75
2022-11-10T06:59:02.265Z,74003.75
2022-11-10T06:59:58.317Z,74003.75
2022-11-10T07:00:49.427Z,74009.75
2022-11-10T07:01:43.315Z,74005.75
2022-11-10T07:02:34.376Z,74013.72
2022-11-10T07:03:28.075Z,74019.72
2022-11-10T07:04:20.072Z,74019.72
2022-11-10T07:05:15.448Z,74017.72
2022-11-10T07:06:07.323Z,74019.72
2022-11-10T07:07:00.744Z,74023.72
2022-11-10T07:07:52.103Z,74015.72
2022-11-10T07:08:45.842Z,74023.72
2022-11-10T07:09:36.445Z,74027.72
2022-11-10T07:10:30.199Z,74031.69
2022-11-10T07:11:21.039Z,74029.72
2022-11-10T07:12:14.708Z,74027.72
2022-11-10T07:13:05.739Z,74031.69
2022-11-10T07:13:59.000Z,74035.69
2022-11-10T07:14:49.757Z,74037.69
2022-11-10T07:15:46.083Z,74045.69
2022-11-10T07:16:36.996Z,74045.69
2022-11-10T07:17:30.522Z,74047.66
2022-11-10T07:18:21.004Z,74047.66
2022-11-10T07:19:14.660Z,74055.66
2022-11-10T07:20:07.034Z,74049.66
2022-11-10T07:21:00.553Z,74049.66
2022-11-10T07:21:52.005Z,74043.69
2022-11-10T07:22:45.920Z,74045.69
2022-11-10T07:23:37.085Z,74047.66
2022-11-10T07:24:30.683Z,74047.66
2022-11-10T07:25:21.757Z,74051.66
2022-11-10T07:26:15.263Z,74053.66
2022-11-10T07:27:08.001Z,74049.66
2022-11-10T07:28:03.001Z,74051.66
2022-11-10T07:28:53.852Z,74055.66
2022-11-10T07:29:47.439Z,74053.66
2022-11-10T07:30:38.033Z,74059.66
2022-11-10T07:31:34.149Z,74055.66
2022-11-10T07:32:25.059Z,74067.63
2022-11-10T07:33:19.030Z,74061.66
2022-11-10T07:34:10.441Z,74059.66
2022-11-10T07:35:03.688Z,74059.66
2022-11-10T07:35:57.432Z,74055.66
2022-11-10T07:36:51.052Z,74051.66
2022-11-10T07:37:41.736Z,74055.66
2022-11-10T07:38:35.652Z,74059.66
2022-11-10T07:39:26.531Z,74059.66
2022-11-10T07:40:20.022Z,74063.66
2022-11-10T07:41:13.812Z,74063.66
2022-11-10T07:42:04.649Z,74059.66
2022-11-10T07:42:58.005Z,74063.66
2022-11-10T07:43:49.187Z,74071.63
2022-11-10T07:44:42.341Z,74067.63
2022-11-10T07:45:33.669Z,74067.63
2022-11-10T07:46:27.381Z,74063.66
2022-11-10T07:47:20.702Z,74069.63
2022-11-10T07:48:14.583Z,74071.63
2022-11-10T07:49:05.423Z,74063.66
2022-11-10T07:49:58.726Z,74067.63
2022-11-10T07:50:50.920Z,74067.63
2022-11-10T07:51:45.962Z,74067.63
2022-11-10T07:52:36.872Z,74071.63
2022-11-10T07:53:30.147Z,74061.66
2022-11-10T07:54:21.272Z,74059.66
2022-11-10T07:55:14.592Z,74057.66
2022-11-10T07:56:05.312Z,74063.66
2022-11-10T07:56:58.524Z,74057.66
2022-11-10T07:57:49.419Z,74057.66
2022-11-10T07:58:42.684Z,74055.66
2022-11-10T07:59:36.161Z,74053.66
2022-11-10T08:00:27.326Z,74055.66
2022-11-10T08:01:20.845Z,74049.66
2022-11-10T08:02:12.267Z,74053.66
2022-11-10T08:03:10.192Z,74051.66
2022-11-10T08:04:04.426Z,74047.66
2022-11-10T08:04:55.011Z,74051.66
2022-11-10T08:05:48.568Z,74051.66
2022-11-10T08:06:39.773Z,74047.66
2022-11-10T08:07:33.235Z,74049.66
2022-11-10T08:08:26.467Z,74045.69
2022-11-10T08:09:17.272Z,74045.69
2022-11-10T08:10:11.483Z,74045.69
2022-11-10T08:11:04.925Z,74043.69
2022-11-10T08:11:55.783Z,74047.66
2022-11-10T08:12:48.973Z,74043.69
2022-11-10T08:13:40.226Z,74039.69
2022-11-10T08:14:33.992Z,74035.69
2022-11-10T08:15:25.495Z,74043.69
2022-11-10T08:16:19.105Z,74043.69
2022-11-10T08:17:09.936Z,74037.69
2022-11-10T08:18:04.532Z,74031.69
2022-11-10T08:18:58.129Z,74037.69
2022-11-10T08:19:51.544Z,74039.69
2022-11-10T08:20:42.283Z,74039.69
2022-11-10T08:21:35.833Z,74039.69
2022-11-10T08:22:26.409Z,74037.69
2022-11-10T08:23:21.015Z,74037.69
2022-11-10T08:24:12.621Z,74039.69
2022-11-10T08:25:05.939Z,74037.69
2022-11-10T08:26:01.513Z,74035.69
2022-11-10T08:26:52.327Z,74035.69
2022-11-10T08:27:45.617Z,74031.69
2022-11-10T08:28:39.117Z,74029.72
2022-11-10T08:29:29.894Z,74033.69
2022-11-10T08:30:23.412Z,74035.69
2022-11-10T08:31:16.904Z,74031.69
2022-11-10T08:32:07.919Z,74027.72
2022-11-10T08:33:02.939Z,74033.69
2022-11-10T08:33:53.794Z,74037.69
2022-11-10T08:34:50.204Z,74039.69
2022-11-10T08:35:43.255Z,74035.69
2022-11-10T08:36:38.204Z,74035.69
2022-11-10T08:37:29.026Z,74035.69
2022-11-10T08:38:24.488Z,74039.69
2022-11-10T08:39:36.517Z,74039.69
2022-11-10T08:40:31.833Z,74041.69
2022-11-10T08:41:22.780Z,74039.69
2022-11-10T08:42:16.196Z,74031.69
2022-11-10T08:43:07.955Z,74039.69
2022-11-10T08:44:01.608Z,74039.69
2022-11-10T08:44:52.156Z,74043.69
2022-11-10T08:45:46.930Z,74045.69
2022-11-10T08:46:37.858Z,74049.66
2022-11-10T08:47:31.242Z,74043.69
2022-11-10T08:48:22.147Z,74039.69
2022-11-10T08:49:15.740Z,74039.69
2022-11-10T08:50:10.382Z,74043.69
2022-11-10T08:51:04.540Z,74043.69
2022-11-10T08:51:55.517Z,74047.66
2022-11-10T08:52:48.925Z,74047.66
2022-11-10T08:53:39.979Z,74043.69
2022-11-10T08:54:33.503Z,74039.69
2022-11-10T08:55:24.390Z,74039.69
2022-11-10T08:56:17.887Z,74037.69
2022-11-10T08:57:08.845Z,74045.69
2022-11-10T08:58:02.968Z,74039.69
2022-11-10T08:58:54.324Z,74045.69
2022-11-10T08:59:47.820Z,74043.69
2022-11-10T09:00:38.741Z,74039.69
2022-11-10T09:01:32.253Z,74047.66
2022-11-10T09:02:23.408Z,74041.69
2022-11-10T09:03:19.011Z,74047.66
2022-11-10T09:04:10.165Z,74043.69
2022-11-10T09:05:03.885Z,74043.69
2022-11-10T09:06:00.570Z,74045.69
2022-11-10T09:06:51.408Z,74049.66
2022-11-10T09:07:48.282Z,74055.66
2022-11-10T09:08:41.798Z,74051.66
2022-11-10T09:09:32.477Z,74057.66
2022-11-10T09:10:26.044Z,74051.66
2022-11-10T09:11:16.932Z,74055.66
2022-11-10T09:12:10.284Z,74047.66
2022-11-10T09:13:01.554Z,74051.66
2022-11-10T09:13:55.048Z,74043.69
2022-11-10T09:14:48.323Z,74035.69
2022-11-10T09:15:39.733Z,74047.66
2022-11-10T09:16:33.152Z,74039.69
2022-11-10T09:17:24.169Z,74039.69
2022-11-10T09:18:18.157Z,74037.69
2022-11-10T09:19:08.835Z,74035.69
2022-11-10T09:20:02.850Z,74041.69
2022-11-10T09:20:53.751Z,74039.69
2022-11-10T09:21:49.997Z,74041.69
2022-11-10T09:22:41.182Z,74043.69
2022-11-10T09:23:34.752Z,74047.66
2022-11-10T09:24:31.049Z,74045.69
2022-11-10T09:25:25.553Z,74051.66
2022-11-10T09:26:16.439Z,74055.66
2022-11-10T09:27:10.172Z,74053.66
2022-11-10T09:28:03.486Z,74051.66
2022-11-10T09:28:54.330Z,74059.66
2022-11-10T09:29:47.851Z,74059.66
2022-11-10T09:30:41.395Z,74063.66
2022-11-10T09:31:31.982Z,74063.66
2022-11-10T09:32:25.439Z,74053.66
2022-11-10T09:33:16.795Z,74069.63
2022-11-10T09:34:10.325Z,74059.66
2022-11-10T09:35:01.461Z,74065.66
2022-11-10T09:35:54.814Z,74061.66
2022-11-10T09:36:51.472Z,74055.66
2022-11-10T09:37:42.267Z,74065.66
2022-11-10T09:38:36.193Z,74063.66
2022-11-10T09:39:26.721Z,74063.66
2022-11-10T09:40:22.572Z,74067.63
2022-11-10T09:41:15.055Z,74063.66
2022-11-10T09:42:09.390Z,74067.63
2022-11-10T09:43:01.616Z,74069.63
2022-11-10T09:44:02.552Z,74071.63
2022-11-10T09:45:00.227Z,74071.63
2022-11-10T09:45:56.736Z,74075.63
2022-11-10T09:46:51.248Z,74071.63
2022-11-10T09:47:58.052Z,74069.63
2022-11-10T09:48:51.413Z,74073.63
2022-11-10T09:49:48.056Z,74075.63
2022-11-10T09:50:42.569Z,74079.63
2022-11-10T09:51:41.737Z,74079.63
2022-11-10T09:52:42.764Z,74075.63
2022-11-10T09:53:37.554Z,74075.63
2022-11-10T09:54:37.612Z,74075.63
2022-11-10T09:55:34.029Z,74071.63
2022-11-10T09:56:32.486Z,74073.63
2022-11-10T09:57:25.438Z,74071.63
2022-11-10T09:58:19.192Z,74071.63
2022-11-10T09:59:19.669Z,74073.63
2022-11-10T10:00:14.306Z,74071.63
2022-11-10T10:01:18.539Z,74059.66
2022-11-10T10:02:22.945Z,74059.66
2022-11-10T10:03:17.005Z,74061.66
2022-11-10T10:04:23.190Z,74059.66
2022-11-10T10:05:36.201Z,74063.66
2022-11-10T10:06:43.744Z,74061.66
2022-11-10T10:07:50.597Z,74059.66
2022-11-10T10:08:52.302Z,74059.66
2022-11-10T10:09:50.232Z,74063.66
2022-11-10T10:10:46.289Z,74057.66
2022-11-10T10:11:45.203Z,74063.66
2022-11-10T10:12:49.562Z,74063.66
2022-11-10T10:13:56.899Z,74063.66
2022-11-10T10:15:06.624Z,74075.63
2022-11-10T10:16:09.362Z,74071.63
2022-11-10T10:17:02.897Z,74079.63
2022-11-10T10:18:06.514Z,74075.63
2022-11-10T10:19:05.645Z,74073.63
2022-11-10T10:20:02.416Z,74079.63
2022-11-10T10:21:06.912Z,74079.63
2022-11-10T10:22:16.812Z,74081.63
2022-11-10T10:23:30.512Z,74079.63
2022-11-10T10:24:34.971Z,74089.59
2022-11-10T10:25:27.420Z,74077.63
2022-11-10T10:26:23.916Z,74083.63
2022-11-10T10:27:20.371Z,74081.63
2022-11-10T10:28:19.538Z,74079.63
2022-11-10T10:29:16.017Z,74091.59
2022-11-10T10:30:13.272Z,74093.59
2022-11-10T10:31:16.556Z,74091.59